Time;durP1;ratioP1;P1;durP2;ratioP2;P2;SDS_P1;SDS_P2;PMS_P1;PMS_P2;Temp;Humidity;BMP_temperature;BMP_pressure;BME280_temperature;BME280_humidity;BME280_pressure;Samples;Min_cycle;Max_cycle;Signal;HPM_P1;HPM_P2
2021/11/20 00:01:57;;;;;;;43.70;24.83;;;11.50;94.10;;;;;;5066409;28;20087;-55
2021/11/20 00:04:25;;;;;;;46.80;26.60;;;11.50;94.10;;;;;;5067111;28;20555;-58
2021/11/20 00:06:53;;;;;;;41.75;25.25;;;11.50;94.10;;;;;;5066744;28;20071;-58
2021/11/20 00:09:22;;;;;;;39.15;23.42;;;11.50;94.10;;;;;;5066866;28;20052;-57
2021/11/20 00:11:51;;;;;;;38.35;22.73;;;11.40;94.10;;;;;;5066291;28;20102;-58
2021/11/20 00:14:18;;;;;;;39.47;22.67;;;11.40;94.20;;;;;;5066895;28;20095;-59
2021/11/20 00:16:45;;;;;;;41.55;24.23;;;11.50;94.20;;;;;;5081378;28;20044;-58
2021/11/20 00:19:12;;;;;;;43.92;24.13;;;11.50;94.20;;;;;;5079735;28;20125;-57
2021/11/20 00:21:45;;;;;;;35.17;21.63;;;11.40;94.10;;;;;;5073745;28;20041;-58
2021/11/20 00:24:31;;;;;;;34.33;21.77;;;11.40;94.10;;;;;;5065950;28;20036;-57
2021/11/20 00:27:00;;;;;;;34.35;20.75;;;11.30;94.30;;;;;;5065346;28;20102;-57
2021/11/20 00:29:39;;;;;;;35.85;21.55;;;11.30;94.50;;;;;;5065088;28;20473;-57
2021/11/20 00:32:10;;;;;;;38.58;23.38;;;11.30;94.20;;;;;;5068691;28;20566;-57
2021/11/20 00:34:38;;;;;;;37.22;22.20;;;11.40;94.20;;;;;;5068232;28;20048;-57
2021/11/20 00:37:05;;;;;;;35.72;22.38;;;11.40;94.20;;;;;;5068232;28;20044;-58
2021/11/20 00:39:32;;;;;;;35.33;20.60;;;11.40;94.20;;;;;;5067983;28;20083;-56
2021/11/20 00:41:59;;;;;;;30.65;21.33;;;11.30;94.10;;;;;;5069233;28;20566;-58
2021/11/20 00:44:27;;;;;;;32.83;20.00;;;11.20;94.20;;;;;;5070404;28;20099;-57
2021/11/20 00:46:54;;;;;;;30.50;20.60;;;11.20;94.30;;;;;;5069819;28;20075;-57
2021/11/20 00:49:21;;;;;;;33.38;20.77;;;11.20;94.40;;;;;;5070757;28;20107;-58
2021/11/20 00:51:48;;;;;;;31.58;20.85;;;11.20;94.30;;;;;;5070345;28;20049;-57
2021/11/20 00:54:15;;;;;;;36.33;22.45;;;11.30;94.30;;;;;;5070858;28;20462;-57
2021/11/20 00:56:42;;;;;;;33.70;22.23;;;11.20;94.20;;;;;;5069743;28;20475;-56
2021/11/20 00:59:09;;;;;;;30.13;20.45;;;11.20;94.30;;;;;;5070861;28;20666;-57
2021/11/20 01:01:39;;;;;;;34.70;22.10;;;11.20;94.30;;;;;;5070304;28;20052;-58
2021/11/20 01:04:06;;;;;;;36.47;22.95;;;11.20;94.30;;;;;;5070781;28;20057;-58
2021/11/20 01:06:34;;;;;;;37.97;21.98;;;11.20;94.30;;;;;;5070491;28;20080;-57
2021/11/20 01:09:02;;;;;;;35.30;21.50;;;11.20;94.30;;;;;;5070702;28;20102;-57
2021/11/20 01:11:32;;;;;;;27.90;19.92;;;11.20;94.20;;;;;;5070056;28;20056;-57
2021/11/20 01:14:00;;;;;;;34.03;20.02;;;11.10;94.30;;;;;;5070676;28;20106;-58
2021/11/20 01:16:27;;;;;;;31.75;20.38;;;11.10;94.30;;;;;;5070425;28;20109;-58
2021/11/20 01:18:54;;;;;;;30.52;20.40;;;11.10;94.40;;;;;;5073624;28;20044;-58
2021/11/20 01:21:21;;;;;;;32.50;20.48;;;11.00;94.40;;;;;;5080304;28;20036;-58
2021/11/20 01:23:48;;;;;;;33.08;21.45;;;10.90;94.50;;;;;;5070198;28;20559;-58
2021/11/20 01:26:16;;;;;;;30.13;20.33;;;10.90;94.60;;;;;;5069670;28;20080;-57
2021/11/20 01:28:44;;;;;;;31.02;20.50;;;11.00;94.60;;;;;;5070858;28;20045;-58
2021/11/20 01:31:12;;;;;;;34.28;23.10;;;10.90;94.50;;;;;;5070998;28;20119;-58
2021/11/20 01:33:40;;;;;;;35.17;20.92;;;10.90;94.60;;;;;;5070243;28;20099;-58
2021/11/20 01:36:07;;;;;;;32.58;20.60;;;10.90;94.60;;;;;;5068960;28;20052;-57
2021/11/20 01:38:34;;;;;;;31.40;20.08;;;10.90;94.60;;;;;;5053578;28;20083;-57
2021/11/20 01:41:02;;;;;;;33.28;19.55;;;10.90;94.60;;;;;;5088590;28;20135;-56
2021/11/20 01:43:29;;;;;;;31.30;20.85;;;10.90;94.50;;;;;;5068426;28;20141;-57
2021/11/20 01:46:11;;;;;;;32.17;21.90;;;10.90;94.50;;;;;;5069980;28;20063;-56
2021/11/20 01:48:50;;;;;;;31.08;21.38;;;10.90;94.60;;;;;;5069815;28;20048;-58
2021/11/20 01:51:23;;;;;;;33.70;20.83;;;10.80;94.70;;;;;;5069568;28;20083;-56
2021/11/20 01:53:57;;;;;;;33.28;21.63;;;10.70;94.80;;;;;;5069665;28;20127;-57
2021/11/20 01:56:54;;;;;;;32.17;20.08;;;10.70;94.90;;;;;;5067385;28;20294;-56
2021/11/20 01:59:30;;;;;;;34.40;22.10;;;10.60;95.00;;;;;;4718739;28;9999903;-57
2021/11/20 02:02:19;;;;;;;35.13;22.88;;;10.60;95.00;;;;;;5083155;28;20368;-55
2021/11/20 02:04:50;;;;;;;32.00;20.50;;;10.70;95.00;;;;;;5057722;28;20479;-56
2021/11/20 02:07:27;;;;;;;27.58;18.88;;;10.70;94.80;;;;;;5068338;28;20534;-57
2021/11/20 02:10:08;;;;;;;31.02;20.30;;;10.70;94.70;;;;;;5057951;28;20140;-55
2021/11/20 02:12:42;;;;;;;33.47;22.17;;;10.80;94.70;;;;;;5068953;28;20075;-55
2021/11/20 02:15:13;;;;;;;29.92;19.92;;;10.80;94.60;;;;;;5069354;28;20076;-57
2021/11/20 02:17:51;;;;;;;34.13;21.98;;;10.80;94.50;;;;;;5069461;28;20040;-56
2021/11/20 02:20:34;;;;;;;34.42;22.58;;;10.80;94.50;;;;;;5058026;28;20084;-55
2021/11/20 02:23:00;;;;;;;31.83;21.17;;;10.90;94.50;;;;;;5067482;28;20556;-57
2021/11/20 02:25:27;;;;;;;34.80;21.92;;;10.90;94.40;;;;;;5068723;28;20075;-56
2021/11/20 02:27:55;;;;;;;30.30;19.83;;;10.90;94.40;;;;;;5068916;28;20067;-55
2021/11/20 02:30:32;;;;;;;32.90;21.67;;;10.90;94.40;;;;;;5067673;28;20082;-57
2021/11/20 02:33:01;;;;;;;28.80;18.38;;;10.80;94.40;;;;;;5068584;28;20110;-57
2021/11/20 02:35:37;;;;;;;24.33;17.73;;;10.70;94.50;;;;;;5068900;28;20492;-57
2021/11/20 02:38:05;;;;;;;24.52;15.98;;;10.60;94.60;;;;;;5068654;28;20040;-58
2021/11/20 02:40:32;;;;;;;27.73;18.30;;;10.60;94.60;;;;;;5068725;28;20080;-58
2021/11/20 02:42:59;;;;;;;27.48;18.55;;;10.50;94.70;;;;;;5068252;28;20056;-57
2021/11/20 02:45:28;;;;;;;25.02;18.63;;;10.50;94.80;;;;;;5067410;28;20662;-56
2021/11/20 02:47:55;;;;;;;26.95;18.17;;;10.50;94.80;;;;;;5068844;28;20063;-56
2021/11/20 02:50:37;;;;;;;33.28;19.40;;;10.50;94.80;;;;;;5068430;28;20048;-56
2021/11/20 02:53:06;;;;;;;26.92;19.30;;;10.50;94.90;;;;;;5048253;28;20110;-58
2021/11/20 02:55:33;;;;;;;30.35;21.95;;;10.50;95.00;;;;;;5066847;28;20112;-57
2021/11/20 02:58:00;;;;;;;30.98;19.88;;;10.50;95.00;;;;;;5068532;28;20499;-55
2021/11/20 03:00:27;;;;;;;26.55;19.88;;;10.50;95.20;;;;;;5071109;28;20091;-55
2021/11/20 03:02:54;;;;;;;31.92;19.88;;;10.50;95.00;;;;;;5049448;28;20045;-58
2021/11/20 03:05:20;;;;;;;37.05;21.95;;;10.50;94.90;;;;;;5062430;28;20049;-57
2021/11/20 03:08:07;;;;;;;35.33;23.25;;;10.60;94.90;;;;;;5062817;28;20098;-57
2021/11/20 03:10:46;;;;;;;37.50;22.33;;;10.60;95.00;;;;;;5072236;28;20131;-56
2021/11/20 03:13:15;;;;;;;27.95;19.00;;;10.60;95.00;;;;;;5067466;28;20080;-55
2021/11/20 03:15:41;;;;;;;25.42;17.10;;;10.50;95.10;;;;;;5066685;28;20049;-58
2021/11/20 03:18:08;;;;;;;28.88;19.15;;;10.40;95.10;;;;;;5068405;28;20551;-56
2021/11/20 03:20:36;;;;;;;24.02;17.58;;;10.30;95.40;;;;;;5068136;28;20097;-57
2021/11/20 03:23:05;;;;;;;20.02;15.52;;;10.20;95.30;;;;;;5067987;28;20052;-55
2021/11/20 03:25:32;;;;;;;24.08;16.77;;;10.20;95.20;;;;;;5067737;28;20091;-55
2021/11/20 03:27:59;;;;;;;22.52;17.48;;;10.20;95.30;;;;;;5068304;28;20083;-56
2021/11/20 03:30:26;;;;;;;27.00;19.83;;;10.30;95.10;;;;;;5067793;28;20045;-57
2021/11/20 03:32:53;;;;;;;25.48;15.48;;;10.30;95.20;;;;;;5067756;28;20493;-57
2021/11/20 03:35:20;;;;;;;19.95;15.45;;;10.30;95.10;;;;;;5067166;28;20040;-56
2021/11/20 03:37:47;;;;;;;24.10;17.52;;;10.40;95.10;;;;;;5067983;28;20060;-56
2021/11/20 03:40:14;;;;;;;21.55;16.83;;;10.40;94.90;;;;;;5067867;28;20479;-55
2021/11/20 03:42:41;;;;;;;24.85;17.25;;;10.40;94.90;;;;;;5066978;28;20479;-57
2021/11/20 03:45:09;;;;;;;21.75;16.27;;;10.40;94.90;;;;;;5067921;28;20139;-56
2021/11/20 03:47:36;;;;;;;21.83;16.33;;;10.50;94.80;;;;;;5068044;28;20087;-57
2021/11/20 03:50:03;;;;;;;25.80;17.23;;;10.50;94.80;;;;;;5067897;28;20088;-55
2021/11/20 03:52:30;;;;;;;23.67;16.55;;;10.50;94.70;;;;;;5066269;28;20119;-57
2021/11/20 03:54:56;;;;;;;24.05;18.25;;;10.50;94.70;;;;;;5066668;28;20557;-54
2021/11/20 03:57:23;;;;;;;24.25;17.77;;;10.50;94.70;;;;;;5066078;28;20076;-57
2021/11/20 03:59:50;;;;;;;22.65;15.88;;;10.50;94.70;;;;;;5068102;28;20140;-56
2021/11/20 04:02:17;;;;;;;25.30;17.75;;;10.50;94.70;;;;;;5062632;28;20119;-56
2021/11/20 04:04:44;;;;;;;19.65;14.65;;;10.60;94.80;;;;;;5066454;28;20049;-55
2021/11/20 04:07:11;;;;;;;20.60;13.80;;;10.50;94.70;;;;;;5071533;28;20507;-58
2021/11/20 04:09:38;;;;;;;21.25;14.75;;;10.50;94.70;;;;;;5071749;28;20483;-58
2021/11/20 04:12:05;;;;;;;18.50;14.35;;;10.50;94.80;;;;;;5071125;28;20094;-57
2021/11/20 04:14:32;;;;;;;19.60;13.57;;;10.50;94.70;;;;;;5070324;28;20045;-56
2021/11/20 04:16:58;;;;;;;22.60;15.43;;;10.50;94.70;;;;;;5069933;28;20507;-58
2021/11/20 04:19:25;;;;;;;19.65;14.10;;;10.40;94.70;;;;;;5071715;28;20127;-60
2021/11/20 04:21:52;;;;;;;19.83;13.68;;;10.40;94.70;;;;;;5071444;28;20105;-56
2021/11/20 04:24:19;;;;;;;18.00;13.30;;;10.50;94.60;;;;;;5060413;28;20082;-56
2021/11/20 04:26:46;;;;;;;20.45;14.52;;;10.50;94.60;;;;;;5070840;28;20044;-57
2021/11/20 04:29:13;;;;;;;18.85;13.02;;;10.50;94.60;;;;;;5072065;28;20044;-57
2021/11/20 04:31:40;;;;;;;19.20;14.07;;;10.50;94.60;;;;;;5071358;28;20056;-60
2021/11/20 04:34:07;;;;;;;19.52;13.20;;;10.50;94.60;;;;;;5071282;28;20040;-58
2021/11/20 04:36:33;;;;;;;18.92;13.55;;;10.60;94.50;;;;;;5070060;28;20128;-58
2021/11/20 04:39:00;;;;;;;17.13;12.02;;;10.60;94.40;;;;;;5070040;28;20083;-58
2021/11/20 04:41:27;;;;;;;17.48;11.75;;;10.60;94.40;;;;;;5070968;28;20152;-58
2021/11/20 04:43:54;;;;;;;20.70;13.48;;;10.60;94.40;;;;;;5070818;28;20299;-57
2021/11/20 04:46:22;;;;;;;18.92;12.43;;;10.60;94.40;;;;;;5051396;28;20091;-57
2021/11/20 04:48:48;;;;;;;18.25;11.88;;;10.60;94.40;;;;;;5065244;28;20050;-56
2021/11/20 04:51:15;;;;;;;14.93;11.27;;;10.60;94.30;;;;;;5070930;28;20087;-56
2021/11/20 04:53:43;;;;;;;14.10;10.60;;;10.60;94.30;;;;;;5070787;28;20102;-58
2021/11/20 04:56:10;;;;;;;13.25;10.40;;;10.60;94.30;;;;;;5069507;28;20127;-56
2021/11/20 04:58:37;;;;;;;14.55;9.75;;;10.70;94.30;;;;;;5070473;28;20056;-56
2021/11/20 05:01:05;;;;;;;13.18;10.38;;;10.50;94.30;;;;;;5070680;28;20491;-56
2021/11/20 05:03:32;;;;;;;13.68;9.80;;;10.50;94.40;;;;;;5069253;28;20119;-57
2021/11/20 05:05:59;;;;;;;13.10;9.15;;;10.50;94.20;;;;;;5070493;28;20184;-56
2021/11/20 05:08:26;;;;;;;12.25;9.30;;;10.60;94.30;;;;;;5070682;28;20044;-57
2021/11/20 05:10:53;;;;;;;12.45;8.63;;;10.60;94.20;;;;;;5070202;28;20066;-56
2021/11/20 05:13:21;;;;;;;10.88;8.10;;;10.60;94.20;;;;;;5070971;28;20048;-57
2021/11/20 05:15:49;;;;;;;11.38;8.70;;;10.60;94.10;;;;;;5070137;28;20076;-55
2021/11/20 05:18:16;;;;;;;10.50;7.72;;;10.60;94.20;;;;;;5070463;28;20121;-55
2021/11/20 05:20:43;;;;;;;9.68;7.95;;;10.60;94.10;;;;;;5070216;28;20106;-55
2021/11/20 05:23:10;;;;;;;10.82;8.25;;;10.70;94.00;;;;;;5070470;28;20079;-57
2021/11/20 05:25:37;;;;;;;11.23;7.78;;;10.60;94.00;;;;;;5069882;28;20330;-57
2021/11/20 05:28:04;;;;;;;12.05;8.57;;;10.70;94.00;;;;;;5070261;28;20092;-56
2021/11/20 05:30:34;;;;;;;11.90;9.02;;;10.70;94.00;;;;;;5070005;28;20166;-57
2021/11/20 05:33:12;;;;;;;9.48;7.47;;;10.70;93.80;;;;;;5070076;28;20587;-55
2021/11/20 05:35:39;;;;;;;11.50;7.78;;;10.70;93.90;;;;;;5069582;28;20068;-55
2021/11/20 05:38:06;;;;;;;10.25;6.63;;;10.70;93.90;;;;;;5070524;28;20513;-56
2021/11/20 05:40:33;;;;;;;7.90;6.82;;;10.60;93.90;;;;;;5069727;28;20071;-57
2021/11/20 05:43:01;;;;;;;8.43;6.50;;;10.60;93.90;;;;;;5069845;28;20114;-57
2021/11/20 05:45:30;;;;;;;8.43;6.60;;;10.60;93.80;;;;;;5069637;28;20090;-56
2021/11/20 05:47:57;;;;;;;8.23;7.28;;;10.60;93.80;;;;;;5070012;28;20075;-56
2021/11/20 05:50:24;;;;;;;10.02;7.43;;;10.60;93.70;;;;;;5069740;28;20084;-55
2021/11/20 05:52:51;;;;;;;9.18;6.90;;;10.60;93.90;;;;;;5068407;28;20098;-58
2021/11/20 05:55:19;;;;;;;11.50;7.53;;;10.70;93.80;;;;;;5069460;28;20053;-56
2021/11/20 05:57:46;;;;;;;8.48;7.00;;;10.70;93.90;;;;;;5069659;28;20102;-55
2021/11/20 06:00:18;;;;;;;10.10;6.60;;;10.70;93.80;;;;;;5069269;28;20086;-57
2021/11/20 06:02:45;;;;;;;10.90;7.25;;;10.70;93.80;;;;;;5069019;28;20044;-59
2021/11/20 06:05:12;;;;;;;7.38;5.85;;;10.70;93.80;;;;;;5069357;28;20342;-56
2021/11/20 06:07:39;;;;;;;7.53;5.63;;;10.60;93.80;;;;;;5069627;28;20080;-55
2021/11/20 06:10:06;;;;;;;6.82;6.10;;;10.60;93.80;;;;;;5070023;28;20139;-55
2021/11/20 06:12:32;;;;;;;6.85;5.35;;;10.60;93.80;;;;;;5069913;28;20071;-57
2021/11/20 06:14:59;;;;;;;6.70;5.25;;;10.50;93.70;;;;;;5069427;28;20102;-56
2021/11/20 06:17:26;;;;;;;6.22;5.28;;;10.50;93.70;;;;;;5067517;28;20144;-56
2021/11/20 06:19:53;;;;;;;7.80;5.38;;;10.50;93.60;;;;;;5069501;28;20383;-55
2021/11/20 06:22:22;;;;;;;5.03;4.50;;;10.50;93.80;;;;;;5069026;28;20139;-57
2021/11/20 06:24:48;;;;;;;6.25;5.18;;;10.50;93.80;;;;;;5069503;28;20049;-55
2021/11/20 06:27:18;;;;;;;8.30;5.53;;;10.50;93.60;;;;;;5067879;28;20499;-53
2021/11/20 06:29:46;;;;;;;10.30;5.18;;;10.60;93.60;;;;;;5069486;28;20079;-59
2021/11/20 06:32:12;;;;;;;6.05;4.88;;;10.60;93.70;;;;;;5067780;28;20474;-54
2021/11/20 06:34:39;;;;;;;7.03;4.82;;;10.60;93.60;;;;;;5067643;28;20083;-57
2021/11/20 06:37:06;;;;;;;5.80;4.75;;;10.60;93.60;;;;;;5068834;28;20123;-57
2021/11/20 06:39:34;;;;;;;6.90;4.28;;;10.70;93.50;;;;;;5068950;28;20049;-57
2021/11/20 06:42:04;;;;;;;6.60;5.60;;;10.90;93.60;;;;;;5068363;28;20904;-55
2021/11/20 06:44:32;;;;;;;6.05;5.22;;;10.70;93.50;;;;;;5068838;28;20216;-57
2021/11/20 06:46:59;;;;;;;5.97;4.70;;;10.70;93.50;;;;;;5068707;28;20917;-57
2021/11/20 06:49:25;;;;;;;9.98;5.82;;;10.70;93.50;;;;;;5068968;28;20071;-56
2021/11/20 06:51:52;;;;;;;7.05;5.78;;;10.70;93.60;;;;;;5068796;28;20083;-55
2021/11/20 06:54:19;;;;;;;5.65;4.40;;;10.70;93.60;;;;;;5068678;28;20566;-56
2021/11/20 06:56:52;;;;;;;7.15;5.63;;;10.70;93.50;;;;;;5072426;28;20090;-56
2021/11/20 07:01:51;;;;;;;7.82;5.50;;;10.70;93.60;;;;;;5068204;28;20135;-58
2021/11/20 07:04:21;;;;;;;5.95;4.25;;;10.70;93.60;;;;;;5067013;28;20044;-55
2021/11/20 07:07:09;;;;;;;7.63;5.30;;;10.70;93.60;;;;;;5066804;28;20114;-56
2021/11/20 07:09:36;;;;;;;8.98;5.85;;;10.70;93.50;;;;;;5066633;28;20055;-56
2021/11/20 07:12:04;;;;;;;6.47;4.53;;;10.60;93.60;;;;;;5068140;28;20545;-57
2021/11/20 07:14:30;;;;;;;6.13;4.30;;;10.70;93.70;;;;;;5067252;28;20075;-57
2021/11/20 07:16:57;;;;;;;6.13;4.57;;;10.70;93.60;;;;;;5068540;28;20479;-56
2021/11/20 07:19:24;;;;;;;4.60;3.95;;;10.60;93.50;;;;;;5064684;28;20049;-56
2021/11/20 07:21:51;;;;;;;7.30;5.18;;;10.60;93.60;;;;;;5086388;28;20063;-55
2021/11/20 07:24:19;;;;;;;5.15;4.28;;;10.60;93.60;;;;;;5071115;28;20049;-54
2021/11/20 07:26:46;;;;;;;5.20;4.20;;;10.70;93.70;;;;;;5067475;28;20080;-55
2021/11/20 07:29:13;;;;;;;7.97;5.05;;;10.60;93.70;;;;;;5067493;28;20515;-55
2021/11/20 07:31:42;;;;;;;8.15;4.50;;;10.60;93.70;;;;;;5066478;28;20048;-57
2021/11/20 07:34:09;;;;;;;6.72;4.55;;;10.60;93.80;;;;;;5067339;28;20485;-56
2021/11/20 07:36:36;;;;;;;5.18;4.40;;;10.60;93.80;;;;;;5068385;28;20048;-57
2021/11/20 07:39:09;;;;;;;7.63;4.80;;;10.60;93.80;;;;;;5067043;28;20041;-56
2021/11/20 07:41:36;;;;;;;8.43;4.72;;;10.60;93.70;;;;;;5067175;28;20056;-57
2021/11/20 07:44:03;;;;;;;5.97;4.65;;;10.60;93.70;;;;;;5066822;28;20047;-58
2021/11/20 07:46:29;;;;;;;8.05;4.65;;;10.60;93.70;;;;;;5065345;28;20063;-58
2021/11/20 07:48:57;;;;;;;6.45;4.22;;;10.60;93.80;;;;;;5066521;28;20049;-57
2021/11/20 07:51:24;;;;;;;5.75;4.53;;;10.60;93.80;;;;;;5066460;28;20049;-56
2021/11/20 07:53:51;;;;;;;7.57;4.60;;;10.60;93.70;;;;;;5066375;28;20105;-58
2021/11/20 07:56:19;;;;;;;5.75;3.80;;;10.60;93.70;;;;;;5064879;28;20048;-57
2021/11/20 07:58:46;;;;;;;6.28;3.83;;;10.60;93.50;;;;;;5065756;28;20224;-56
2021/11/20 08:01:13;;;;;;;5.90;3.72;;;10.60;93.60;;;;;;5066636;28;20079;-56
2021/11/20 08:03:40;;;;;;;5.35;3.72;;;10.60;93.60;;;;;;5066879;28;20052;-55
2021/11/20 08:06:07;;;;;;;8.65;4.82;;;10.50;93.30;;;;;;5065889;28;20127;-57
2021/11/20 08:08:35;;;;;;;6.25;3.35;;;10.50;93.50;;;;;;5067085;28;20044;-57
2021/11/20 08:11:02;;;;;;;6.20;3.20;;;10.50;93.30;;;;;;5065618;28;20052;-55
2021/11/20 08:13:30;;;;;;;5.65;2.35;;;10.50;93.40;;;;;;5065176;28;20048;-56
2021/11/20 08:15:57;;;;;;;5.05;2.65;;;10.50;93.20;;;;;;5066320;28;20044;-57
2021/11/20 08:18:23;;;;;;;3.85;2.20;;;10.60;93.20;;;;;;5066092;28;20114;-57
2021/11/20 08:20:50;;;;;;;4.03;2.25;;;10.60;92.90;;;;;;5065121;28;20044;-57
2021/11/20 08:23:17;;;;;;;3.47;1.90;;;10.70;92.90;;;;;;5066018;28;20040;-58
2021/11/20 08:25:45;;;;;;;4.68;2.67;;;10.70;93.00;;;;;;5064146;28;20049;-56
2021/11/20 08:28:14;;;;;;;2.53;1.75;;;10.80;93.00;;;;;;5065996;28;20087;-55
2021/11/20 08:30:40;;;;;;;5.68;2.45;;;10.80;92.50;;;;;;5066003;28;20072;-57
2021/11/20 08:33:07;;;;;;;4.80;2.33;;;10.70;92.80;;;;;;4711856;28;9999844;-56
2021/11/20 08:35:36;;;;;;;4.07;2.30;;;10.80;92.90;;;;;;5062872;28;20045;-58
2021/11/20 08:38:06;;;;;;;5.60;3.00;;;10.80;92.70;;;;;;5062514;28;20080;-57
2021/11/20 08:40:33;;;;;;;3.97;2.75;;;10.90;92.80;;;;;;5060857;28;20084;-57
2021/11/20 08:43:00;;;;;;;3.33;1.90;;;10.90;92.90;;;;;;5062025;28;20561;-57
2021/11/20 08:45:28;;;;;;;2.45;1.83;;;10.90;92.70;;;;;;5062035;28;20072;-58
2021/11/20 08:47:56;;;;;;;3.95;1.90;;;11.00;92.60;;;;;;5063130;28;20048;-55
2021/11/20 08:50:30;;;;;;;3.15;1.90;;;11.00;92.40;;;;;;5063481;28;20101;-56
2021/11/20 08:52:56;;;;;;;6.90;2.10;;;11.00;92.30;;;;;;5063537;28;20052;-54
2021/11/20 08:55:23;;;;;;;3.75;2.20;;;11.00;92.40;;;;;;5065626;28;20145;-54
2021/11/20 08:57:50;;;;;;;6.75;3.42;;;11.00;92.50;;;;;;5065913;28;20045;-55
2021/11/20 09:00:24;;;;;;;10.13;3.95;;;11.10;92.50;;;;;;5066893;28;20102;-55
2021/11/20 09:03:11;;;;;;;12.85;4.28;;;11.20;92.60;;;;;;5064922;28;20267;-55
2021/11/20 09:05:44;;;;;;;9.57;4.40;;;11.10;92.60;;;;;;5065293;28;20575;-53
2021/11/20 09:08:28;;;;;;;8.48;3.60;;;11.20;92.70;;;;;;5064844;28;20131;-55
2021/11/20 09:11:26;;;;;;;6.90;2.92;;;11.20;92.60;;;;;;5063481;28;20148;-56
2021/11/20 09:14:11;;;;;;;8.32;3.83;;;11.20;92.10;;;;;;5059670;28;20098;-56
2021/11/20 09:16:40;;;;;;;5.28;3.10;;;11.20;92.60;;;;;;5065680;28;20075;-56
2021/11/20 09:19:07;;;;;;;15.60;4.78;;;11.30;92.70;;;;;;5064695;28;20139;-57
2021/11/20 09:21:37;;;;;;;3.95;2.53;;;11.30;92.60;;;;;;5065958;28;20083;-59
2021/11/20 09:24:04;;;;;;;6.22;3.03;;;11.30;92.50;;;;;;5066241;28;20052;-56
2021/11/20 09:26:32;;;;;;;4.65;2.42;;;11.30;92.40;;;;;;5064513;28;20090;-56
2021/11/20 09:28:59;;;;;;;6.75;2.38;;;11.30;92.40;;;;;;5061230;28;20570;-57
2021/11/20 09:31:27;;;;;;;6.63;2.70;;;11.30;92.50;;;;;;5064664;28;20059;-56
2021/11/20 09:33:56;;;;;;;8.00;3.17;;;11.30;92.40;;;;;;5065326;28;20053;-56
2021/11/20 09:36:24;;;;;;;7.70;3.00;;;11.40;92.50;;;;;;5064080;28;20056;-56
2021/11/20 09:38:51;;;;;;;3.95;2.20;;;11.50;92.50;;;;;;5064257;28;20052;-57
2021/11/20 09:41:26;;;;;;;3.42;2.10;;;11.50;92.20;;;;;;5065563;28;20076;-55
2021/11/20 09:43:56;;;;;;;5.50;1.92;;;11.50;92.20;;;;;;5064694;28;20053;-55
2021/11/20 09:46:27;;;;;;;6.53;2.83;;;11.50;92.00;;;;;;5063333;28;20094;-56
2021/11/20 09:49:04;;;;;;;4.65;2.17;;;11.50;92.00;;;;;;5065718;28;20520;-54
2021/11/20 09:51:39;;;;;;;4.70;1.98;;;11.50;92.00;;;;;;5046163;28;20057;-55
2021/11/20 09:54:14;;;;;;;5.57;1.85;;;11.50;91.40;;;;;;5062335;28;20049;-56
2021/11/20 09:57:03;;;;;;;3.22;1.70;;;11.40;91.90;;;;;;5065099;28;20132;-56
2021/11/20 09:59:57;;;;;;;4.75;1.92;;;11.40;92.10;;;;;;5064128;28;20096;-54
2021/11/20 10:02:44;;;;;;;3.22;1.90;;;11.40;91.70;;;;;;5064655;28;20084;-55
2021/11/20 10:05:15;;;;;;;3.10;2.17;;;11.50;92.00;;;;;;5065577;28;20067;-53
2021/11/20 10:07:43;;;;;;;5.35;2.50;;;11.50;92.10;;;;;;5065090;28;20495;-56
2021/11/20 10:10:16;;;;;;;4.10;2.25;;;11.50;92.00;;;;;;5065391;28;20114;-53
2021/11/20 10:12:48;;;;;;;4.18;2.50;;;11.50;91.70;;;;;;5045995;28;20431;-55
2021/11/20 10:15:24;;;;;;;3.53;2.17;;;11.50;92.00;;;;;;5065321;28;20137;-54
2021/11/20 10:18:16;;;;;;;3.67;2.70;;;11.40;91.80;;;;;;5080236;28;20084;-55
2021/11/20 10:20:59;;;;;;;3.35;2.28;;;11.50;92.10;;;;;;5059203;28;20047;-55
2021/11/20 10:23:50;;;;;;;3.95;2.38;;;11.50;91.90;;;;;;5069696;28;20054;-57
2021/11/20 10:26:29;;;;;;;6.63;3.00;;;11.50;92.20;;;;;;5064966;28;20051;-55
2021/11/20 10:29:40;;;;;;;6.00;2.40;;;11.50;92.00;;;;;;5065577;28;20144;-55
2021/11/20 10:32:19;;;;;;;7.68;2.90;;;11.50;91.80;;;;;;5018195;28;20056;-55
2021/11/20 10:35:12;;;;;;;5.00;2.55;;;11.50;92.10;;;;;;5061466;28;20040;-56
2021/11/20 10:37:44;;;;;;;3.92;2.40;;;11.40;92.10;;;;;;5053632;28;20089;-56
2021/11/20 10:40:35;;;;;;;5.78;2.60;;;11.30;92.40;;;;;;5060470;28;20128;-55
2021/11/20 10:43:05;;;;;;;7.13;2.50;;;11.40;92.40;;;;;;5062068;28;20419;-59
2021/11/20 10:45:47;;;;;;;4.75;2.67;;;11.40;92.40;;;;;;5060665;28;20055;-59
2021/11/20 10:48:24;;;;;;;4.03;2.17;;;11.40;92.40;;;;;;5063685;28;20130;-57
2021/11/20 10:51:10;;;;;;;10.05;3.65;;;11.40;92.40;;;;;;5064137;28;20060;-57
2021/11/20 10:54:11;;;;;;;4.75;2.50;;;11.30;92.50;;;;;;5059435;28;20088;-58
2021/11/20 10:56:59;;;;;;;7.70;2.50;;;11.40;92.20;;;;;;5062594;28;20059;-57
2021/11/20 10:59:50;;;;;;;7.70;2.30;;;11.30;92.80;;;;;;5062226;28;20472;-58
2021/11/20 11:02:44;;;;;;;3.67;2.42;;;11.30;92.60;;;;;;5063489;28;20139;-58
2021/11/20 11:05:35;;;;;;;4.93;2.00;;;11.30;92.80;;;;;;5061318;28;20511;-57
2021/11/20 11:08:41;;;;;;;3.20;2.13;;;11.40;92.50;;;;;;5055459;28;20131;-57
2021/11/20 11:11:20;;;;;;;3.08;1.90;;;11.40;92.40;;;;;;5064305;28;20041;-57
2021/11/20 11:14:16;;;;;;;6.05;2.60;;;11.30;92.40;;;;;;5062863;28;20083;-58
2021/11/20 11:17:17;;;;;;;5.28;2.50;;;11.30;92.70;;;;;;5047061;28;20082;-57
2021/11/20 11:20:08;;;;;;;3.63;2.30;;;11.30;92.80;;;;;;5059071;28;20056;-57
2021/11/20 11:22:50;;;;;;;6.13;2.42;;;11.20;92.90;;;;;;5060906;28;20127;-58
2021/11/20 11:25:23;;;;;;;4.68;2.50;;;11.30;93.10;;;;;;5055533;28;20106;-59
2021/11/20 11:28:13;;;;;;;4.63;3.00;;;11.20;93.40;;;;;;5062401;28;20054;-58
2021/11/20 11:31:33;;;;;;;6.63;2.85;;;11.10;94.40;;;;;;5086835;28;20610;-59
2021/11/20 11:34:01;;;;;;;5.90;2.95;;;11.10;94.90;;;;;;5034153;28;20048;-58
2021/11/20 11:36:32;;;;;;;3.90;2.72;;;11.10;94.00;;;;;;5062613;28;20095;-58
2021/11/20 11:39:18;;;;;;;9.70;4.90;;;11.10;94.20;;;;;;5063644;28;20520;-56
2021/11/20 11:42:11;;;;;;;10.30;4.43;;;11.10;94.80;;;;;;5064620;28;20522;-59
2021/11/20 11:44:52;;;;;;;10.25;3.88;;;11.10;94.80;;;;;;5065832;28;20117;-60
2021/11/20 11:47:35;;;;;;;9.85;4.10;;;11.10;94.80;;;;;;5065256;28;20128;-58
2021/11/20 11:50:42;;;;;;;6.68;4.22;;;11.10;94.50;;;;;;5065747;28;20076;-58
2021/11/20 11:53:32;;;;;;;4.90;3.83;;;11.10;94.80;;;;;;5062037;28;20560;-58
2021/11/20 11:56:10;;;;;;;9.38;4.28;;;11.10;94.80;;;;;;5046633;28;20088;-57
2021/11/20 11:59:02;;;;;;;5.88;4.25;;;11.10;94.60;;;;;;5064047;28;20094;-59
2021/11/20 12:01:51;;;;;;;12.82;4.78;;;11.10;94.50;;;;;;5066671;28;20045;-57
2021/11/20 12:04:35;;;;;;;9.02;4.72;;;11.20;94.60;;;;;;5056771;28;20466;-56
2021/11/20 12:07:07;;;;;;;9.98;4.50;;;11.20;94.40;;;;;;5062337;28;20507;-53
2021/11/20 12:09:58;;;;;;;5.90;3.95;;;11.20;94.40;;;;;;5062101;28;20095;-55
2021/11/20 12:12:31;;;;;;;5.25;3.80;;;11.20;94.20;;;;;;5062494;28;20045;-56
2021/11/20 12:15:15;;;;;;;4.45;2.40;;;11.20;94.20;;;;;;5063273;28;20096;-56
2021/11/20 12:17:58;;;;;;;4.40;2.83;;;11.30;93.20;;;;;;5063124;28;20040;-55
2021/11/20 12:20:53;;;;;;;4.75;2.90;;;11.30;93.20;;;;;;5054632;28;20900;-57
2021/11/20 12:23:35;;;;;;;5.45;3.20;;;11.20;92.70;;;;;;5023888;28;20048;-55
2021/11/20 12:26:29;;;;;;;5.95;3.15;;;11.20;92.80;;;;;;5065158;28;20053;-53
2021/11/20 12:29:18;;;;;;;3.80;2.47;;;11.30;93.00;;;;;;5066753;28;20052;-56
2021/11/20 12:32:01;;;;;;;4.78;2.67;;;11.30;92.90;;;;;;5067103;28;20368;-55
2021/11/20 12:34:54;;;;;;;7.05;3.00;;;11.30;92.70;;;;;;5065962;28;20090;-56
2021/11/20 12:37:36;;;;;;;4.75;3.10;;;11.30;92.10;;;;;;5047610;28;20064;-54
2021/11/20 12:40:21;;;;;;;5.03;2.97;;;11.20;92.30;;;;;;5065499;28;20087;-56
2021/11/20 12:43:17;;;;;;;5.63;2.88;;;11.20;92.20;;;;;;5047122;28;20076;-52
2021/11/20 12:45:53;;;;;;;5.65;3.30;;;11.10;92.00;;;;;;5064637;28;20052;-52
2021/11/20 12:49:00;;;;;;;4.38;2.45;;;11.10;92.30;;;;;;5064587;28;20390;-55
2021/11/20 12:51:44;;;;;;;7.75;2.28;;;11.10;92.00;;;;;;5060679;28;20056;-55
2021/11/20 12:54:39;;;;;;;5.40;2.73;;;11.00;92.10;;;;;;5043257;28;20055;-56
2021/11/20 12:57:11;;;;;;;6.93;2.85;;;11.00;92.20;;;;;;5065796;28;20052;-55
2021/11/20 12:59:43;;;;;;;5.57;2.90;;;11.10;92.50;;;;;;5065695;28;20462;-57
2021/11/20 13:02:43;;;;;;;4.60;3.47;;;11.10;92.40;;;;;;5062874;28;20090;-55
2021/11/20 13:05:24;;;;;;;6.03;2.88;;;11.10;92.40;;;;;;5063111;28;20080;-54
2021/11/20 13:08:09;;;;;;;4.78;3.03;;;11.10;92.10;;;;;;5063846;28;20052;-55
2021/11/20 13:10:44;;;;;;;10.77;3.72;;;11.00;92.20;;;;;;5063286;28;20053;-56